Fortune — TCA4893 — position and weather

sailwx.info

Track history (hours):
 
Tides and Currents Weather Stations Pressure Air Temp Water Temp Dewpoint Dewpoint Depression Visibility Wind Speed Wind Dir Waves Ship Positions

Fortune

Last reported at 2018-Aug-15 23:14 UTC. Time now 2018-Aug-21 03:56 UTC.
Position N 42°03' E 033°28'.

Length 92 m; draft 5.4 m.

Type: Cargo ship. MMSI: 271045819.

Date/timePositionNaut miles runAvg speedWind from/ knotsBaromVisibWave heightAir tempDewpointWater temp
2018-Aug-15 23:14N 42°03' E 033°28'5 8.0
2018-Aug-15 22:38N 42°03' E 033°22'1 8.3
2018-Aug-15 22:31N 42°02' E 033°20'4 8.3
2018-Aug-15 22:00N 42°01' E 033°15'4 8.5
2018-Aug-15 21:31N 42°00' E 033°10'44 8.7
2018-Aug-15 16:24N 41°44' E 032°14'4 9.1
2018-Aug-15 16:00N 41°42' E 032°10'4 8.9
2018-Aug-15 15:31N 41°40' E 032°05'5 9.1
2018-Aug-15 15:00N 41°38' E 031°60'8 9.2
2018-Aug-15 14:06N 41°34' E 031°50'1 9.1
2018-Aug-15 14:00N 41°33' E 031°49'7 9.1
2018-Aug-15 13:14N 41°30' E 031°41'2 9.0
2018-Aug-15 13:00N 41°28' E 031°39'4 8.9
2018-Aug-15 12:30N 41°26' E 031°34'4 9.1
2018-Aug-15 12:01N 41°24' E 031°28'  
2018-Aug-07 04:25N 41°55' E 032°48'3 8.1
2018-Aug-07 04:00N 41°56' E 032°52'4 8.2
2018-Aug-07 03:31N 41°57' E 032°57'5 8.3
2018-Aug-07 02:52N 41°59' E 033°04'4 8.4
2018-Aug-07 02:26N 42°00' E 033°09'5 8.4
2018-Aug-07 01:54N 42°01' E 033°14'3 8.4
2018-Aug-07 01:30N 42°03' E 033°19'17 8.8
2018-Aug-06 23:38N 42°03' E 033°41'2 9.1
2018-Aug-06 23:27N 42°03' E 033°43'  
Track history (hours):
 
Tides and Currents Weather Stations Pressure Air Temp Water Temp Dewpoint Dewpoint Depression Visibility Wind Speed Wind Dir Waves Ship Positions

Fortune

Last reported at 2018-Aug-15 23:14 UTC. Time now 2018-Aug-21 03:56 UTC.
Position N 42°03' E 033°28'.

Length 92 m; draft 5.4 m.

Type: Cargo ship. MMSI: 271045819.

Date/timePositionNaut miles runAvg speedWind from/ knotsBaromVisibWave heightAir tempDewpointWater temp
2018-Aug-15 23:14N 42°03' E 033°28'5 8.0
2018-Aug-15 22:38N 42°03' E 033°22'1 8.3
2018-Aug-15 22:31N 42°02' E 033°20'4 8.3
2018-Aug-15 22:00N 42°01' E 033°15'4 8.5
2018-Aug-15 21:31N 42°00' E 033°10'44 8.7
2018-Aug-15 16:24N 41°44' E 032°14'4 9.1
2018-Aug-15 16:00N 41°42' E 032°10'4 8.9
2018-Aug-15 15:31N 41°40' E 032°05'5 9.1
2018-Aug-15 15:00N 41°38' E 031°60'8 9.2
2018-Aug-15 14:06N 41°34' E 031°50'1 9.1
2018-Aug-15 14:00N 41°33' E 031°49'7 9.1
2018-Aug-15 13:14N 41°30' E 031°41'2 9.0
2018-Aug-15 13:00N 41°28' E 031°39'4 8.9
2018-Aug-15 12:30N 41°26' E 031°34'4 9.1
2018-Aug-15 12:01N 41°24' E 031°28'  
2018-Aug-07 04:25N 41°55' E 032°48'3 8.1
2018-Aug-07 04:00N 41°56' E 032°52'4 8.2
2018-Aug-07 03:31N 41°57' E 032°57'5 8.3
2018-Aug-07 02:52N 41°59' E 033°04'4 8.4
2018-Aug-07 02:26N 42°00' E 033°09'5 8.4
2018-Aug-07 01:54N 42°01' E 033°14'3 8.4
2018-Aug-07 01:30N 42°03' E 033°19'17 8.8
2018-Aug-06 23:38N 42°03' E 033°41'2 9.1
2018-Aug-06 23:27N 42°03' E 033°43'  

Dump ship's entire track history